sensor_id;sensor_type;location;lat;lon;timestamp;pressure;altitude;pressure_sealevel;temperature;humidity
7532;BME280;3807;49.030;8.714;2023-02-20T00:00:25;100478.88;;;10.47;76.13
7532;BME280;3807;49.030;8.714;2023-02-20T00:02:51;100476.41;;;10.41;75.95
7532;BME280;3807;49.030;8.714;2023-02-20T00:05:17;100476.63;;;10.24;76.90
7532;BME280;3807;49.030;8.714;2023-02-20T00:07:43;100468.84;;;10.36;76.78
7532;BME280;3807;49.030;8.714;2023-02-20T00:10:09;100461.38;;;10.22;76.75
7532;BME280;3807;49.030;8.714;2023-02-20T00:12:34;100463.66;;;10.44;76.78
7532;BME280;3807;49.030;8.714;2023-02-20T00:15:00;100466.31;;;10.36;76.51
7532;BME280;3807;49.030;8.714;2023-02-20T00:17:25;100463.16;;;10.16;76.78
7532;BME280;3807;49.030;8.714;2023-02-20T00:19:52;100470.59;;;10.33;76.88
7532;BME280;3807;49.030;8.714;2023-02-20T00:22:20;100465.44;;;10.37;76.32
7532;BME280;3807;49.030;8.714;2023-02-20T00:24:45;100467.91;;;10.43;76.16
7532;BME280;3807;49.030;8.714;2023-02-20T00:27:11;100474.66;;;10.44;76.22
7532;BME280;3807;49.030;8.714;2023-02-20T00:29:36;100488.47;;;10.28;76.68
7532;BME280;3807;49.030;8.714;2023-02-20T00:32:02;100489.06;;;10.47;76.23
7532;BME280;3807;49.030;8.714;2023-02-20T00:34:27;100488.31;;;10.40;76.49
7532;BME280;3807;49.030;8.714;2023-02-20T00:36:53;100487.56;;;10.34;76.49
7532;BME280;3807;49.030;8.714;2023-02-20T00:39:18;100490.06;;;10.35;76.38
7532;BME280;3807;49.030;8.714;2023-02-20T00:41:44;100493.66;;;10.19;76.78
7532;BME280;3807;49.030;8.714;2023-02-20T00:44:09;100489.56;;;10.07;76.80
7532;BME280;3807;49.030;8.714;2023-02-20T00:46:35;100491.00;;;10.30;76.78
7532;BME280;3807;49.030;8.714;2023-02-20T00:49:00;100491.91;;;10.25;76.48
7532;BME280;3807;49.030;8.714;2023-02-20T00:51:26;100488.69;;;10.10;76.98
7532;BME280;3807;49.030;8.714;2023-02-20T00:53:52;100488.50;;;10.27;76.78
7532;BME280;3807;49.030;8.714;2023-02-20T00:56:17;100480.91;;;10.20;76.63
7532;BME280;3807;49.030;8.714;2023-02-20T00:58:42;100492.03;;;10.15;76.89
7532;BME280;3807;49.030;8.714;2023-02-20T01:01:08;100486.00;;;10.22;76.85
7532;BME280;3807;49.030;8.714;2023-02-20T01:03:33;100487.63;;;10.28;76.48
7532;BME280;3807;49.030;8.714;2023-02-20T01:05:58;100480.94;;;10.19;76.56
7532;BME280;3807;49.030;8.714;2023-02-20T01:08:24;100488.69;;;10.10;76.68
7532;BME280;3807;49.030;8.714;2023-02-20T01:10:50;100484.63;;;9.95;77.24
7532;BME280;3807;49.030;8.714;2023-02-20T01:13:15;100476.12;;;9.97;77.01
7532;BME280;3807;49.030;8.714;2023-02-20T01:15:41;100482.09;;;9.95;77.64
7532;BME280;3807;49.030;8.714;2023-02-20T01:18:06;100471.03;;;9.96;77.46
7532;BME280;3807;49.030;8.714;2023-02-20T01:20:32;100476.75;;;10.13;76.69
7532;BME280;3807;49.030;8.714;2023-02-20T01:22:57;100482.94;;;9.95;76.75
7532;BME280;3807;49.030;8.714;2023-02-20T01:25:23;100473.50;;;10.03;76.78
7532;BME280;3807;49.030;8.714;2023-02-20T01:27:48;100476.69;;;10.19;76.35
7532;BME280;3807;49.030;8.714;2023-02-20T01:30:14;100475.94;;;10.13;76.50
7532;BME280;3807;49.030;8.714;2023-02-20T01:32:40;100476.84;;;10.07;76.62
7532;BME280;3807;49.030;8.714;2023-02-20T01:35:05;100475.38;;;9.91;76.96
7532;BME280;3807;49.030;8.714;2023-02-20T01:37:31;100464.97;;;10.08;76.55
7532;BME280;3807;49.030;8.714;2023-02-20T01:39:56;100474.31;;;10.04;76.39
7532;BME280;3807;49.030;8.714;2023-02-20T01:42:24;100472.47;;;10.17;75.86
7532;BME280;3807;49.030;8.714;2023-02-20T01:44:50;100471.66;;;10.13;76.12
7532;BME280;3807;49.030;8.714;2023-02-20T01:47:18;100472.50;;;10.14;75.85
7532;BME280;3807;49.030;8.714;2023-02-20T01:49:56;100463.22;;;10.10;75.87
7532;BME280;3807;49.030;8.714;2023-02-20T01:52:27;100461.44;;;10.16;76.16
7532;BME280;3807;49.030;8.714;2023-02-20T01:54:57;100466.94;;;9.86;76.44
7532;BME280;3807;49.030;8.714;2023-02-20T01:57:25;100460.13;;;9.86;76.85
7532;BME280;3807;49.030;8.714;2023-02-20T01:59:56;100463.44;;;9.94;76.77
7532;BME280;3807;49.030;8.714;2023-02-20T02:02:24;100471.66;;;10.13;75.96
7532;BME280;3807;49.030;8.714;2023-02-20T02:04:52;100456.66;;;9.95;76.41
7532;BME280;3807;49.030;8.714;2023-02-20T02:07:18;100459.25;;;9.89;76.63
7532;BME280;3807;49.030;8.714;2023-02-20T02:09:51;100458.31;;;9.96;76.72
7532;BME280;3807;49.030;8.714;2023-02-20T02:12:20;100453.22;;;9.97;76.37
7532;BME280;3807;49.030;8.714;2023-02-20T02:14:46;100448.91;;;10.02;75.63
7532;BME280;3807;49.030;8.714;2023-02-20T02:17:41;100446.44;;;9.98;76.25
7532;BME280;3807;49.030;8.714;2023-02-20T02:38:03;100446.44;;;9.96;75.64
7532;BME280;3807;49.030;8.714;2023-02-20T02:40:49;100453.31;;;9.90;75.83
7532;BME280;3807;49.030;8.714;2023-02-20T02:43:52;100451.44;;;10.02;75.54
7532;BME280;3807;49.030;8.714;2023-02-20T02:46:19;100446.63;;;9.79;76.10
7532;BME280;3807;49.030;8.714;2023-02-20T02:48:51;100438.31;;;9.68;76.76
7532;BME280;3807;49.030;8.714;2023-02-20T02:51:24;100436.44;;;9.84;76.42
7532;BME280;3807;49.030;8.714;2023-02-20T02:54:24;100441.19;;;10.09;75.27
7532;BME280;3807;49.030;8.714;2023-02-20T02:57:22;100443.78;;;10.06;75.03
7532;BME280;3807;49.030;8.714;2023-02-20T02:59:53;100437.13;;;9.95;75.43
7532;BME280;3807;49.030;8.714;2023-02-20T03:02:21;100435.44;;;9.93;75.35
7532;BME280;3807;49.030;8.714;2023-02-20T03:04:49;100433.59;;;10.04;74.84
7532;BME280;3807;49.030;8.714;2023-02-20T03:07:16;100438.00;;;9.94;75.57
7532;BME280;3807;49.030;8.714;2023-02-20T03:09:57;100430.41;;;9.90;75.50
7532;BME280;3807;49.030;8.714;2023-02-20T03:12:25;100429.56;;;9.89;75.90
7532;BME280;3807;49.030;8.714;2023-02-20T03:15:16;100429.63;;;9.83;75.76
7532;BME280;3807;49.030;8.714;2023-02-20T03:18:13;100420.44;;;9.74;76.15
7532;BME280;3807;49.030;8.714;2023-02-20T03:20:44;100434.03;;;9.73;76.10
7532;BME280;3807;49.030;8.714;2023-02-20T03:23:13;100431.41;;;9.78;76.00
7532;BME280;3807;49.030;8.714;2023-02-20T03:25:49;100433.25;;;9.65;76.17
7532;BME280;3807;49.030;8.714;2023-02-20T03:28:22;100430.59;;;9.74;75.74
7532;BME280;3807;49.030;8.714;2023-02-20T03:30:59;100435.59;;;9.82;75.76
7532;BME280;3807;49.030;8.714;2023-02-20T03:36:20;100429.00;;;9.67;76.10
7532;BME280;3807;49.030;8.714;2023-02-20T03:39:10;100427.53;;;9.45;76.89
7532;BME280;3807;49.030;8.714;2023-02-20T03:41:58;100430.81;;;9.54;76.83
7532;BME280;3807;49.030;8.714;2023-02-20T03:44:43;100423.94;;;9.64;76.35
7532;BME280;3807;49.030;8.714;2023-02-20T03:47:13;100423.09;;;9.62;76.24
7532;BME280;3807;49.030;8.714;2023-02-20T03:49:41;100425.72;;;9.59;76.64
7532;BME280;3807;49.030;8.714;2023-02-20T03:52:25;100426.41;;;9.69;75.95
7532;BME280;3807;49.030;8.714;2023-02-20T03:54:51;100422.22;;;9.65;75.92
7532;BME280;3807;49.030;8.714;2023-02-20T03:57:20;100428.22;;;9.61;76.05
7532;BME280;3807;49.030;8.714;2023-02-20T04:00:00;100422.06;;;9.78;75.16
7532;BME280;3807;49.030;8.714;2023-02-20T04:02:36;100426.50;;;9.61;75.95
7532;BME280;3807;49.030;8.714;2023-02-20T04:05:08;100419.69;;;9.65;75.71
7532;BME280;3807;49.030;8.714;2023-02-20T04:07:42;100418.25;;;9.45;76.59
7532;BME280;3807;49.030;8.714;2023-02-20T04:10:14;100415.69;;;9.45;76.29
7532;BME280;3807;49.030;8.714;2023-02-20T04:12:43;100411.44;;;9.44;76.31
7532;BME280;3807;49.030;8.714;2023-02-20T04:15:10;100407.16;;;9.48;76.27
7532;BME280;3807;49.030;8.714;2023-02-20T04:17:42;100399.56;;;9.45;76.42
7532;BME280;3807;49.030;8.714;2023-02-20T04:20:10;100404.44;;;9.65;75.28
7532;BME280;3807;49.030;8.714;2023-02-20T04:22:40;100404.56;;;9.54;75.80
7532;BME280;3807;49.030;8.714;2023-02-20T04:28:04;100402.00;;;9.54;75.81
7532;BME280;3807;49.030;8.714;2023-02-20T04:30:30;100411.38;;;9.50;75.96
7532;BME280;3807;49.030;8.714;2023-02-20T04:32:55;100409.84;;;9.39;76.68
7532;BME280;3807;49.030;8.714;2023-02-20T04:35:21;100401.31;;;9.41;76.35
7532;BME280;3807;49.030;8.714;2023-02-20T04:37:46;100401.44;;;9.32;76.54
7532;BME280;3807;49.030;8.714;2023-02-20T04:40:14;100407.28;;;9.39;76.31
7532;BME280;3807;49.030;8.714;2023-02-20T04:42:40;100416.66;;;9.35;76.62
7532;BME280;3807;49.030;8.714;2023-02-20T04:45:06;100416.78;;;9.21;76.70
7532;BME280;3807;49.030;8.714;2023-02-20T04:47:31;100405.69;;;9.27;76.74
7532;BME280;3807;49.030;8.714;2023-02-20T04:49:57;100408.22;;;9.30;76.45
7532;BME280;3807;49.030;8.714;2023-02-20T04:52:22;100412.44;;;9.33;76.32
7532;BME280;3807;49.030;8.714;2023-02-20T04:54:49;100413.34;;;9.28;76.45
7532;BME280;3807;49.030;8.714;2023-02-20T04:57:14;100411.66;;;9.27;76.83
7532;BME280;3807;49.030;8.714;2023-02-20T04:59:39;100415.00;;;9.29;76.17
7532;BME280;3807;49.030;8.714;2023-02-20T05:02:05;100412.53;;;9.23;75.98
7532;BME280;3807;49.030;8.714;2023-02-20T05:04:30;100416.78;;;9.21;76.18
7532;BME280;3807;49.030;8.714;2023-02-20T05:06:56;100419.28;;;9.27;76.13
7532;BME280;3807;49.030;8.714;2023-02-20T05:09:22;100414.16;;;9.29;76.00
7532;BME280;3807;49.030;8.714;2023-02-20T05:11:47;100414.50;;;8.97;77.07
7532;BME280;3807;49.030;8.714;2023-02-20T05:14:13;100411.13;;;8.93;77.66
7532;BME280;3807;49.030;8.714;2023-02-20T05:16:39;100408.50;;;9.04;77.33
7532;BME280;3807;49.030;8.714;2023-02-20T05:19:06;100404.34;;;8.94;77.53
7532;BME280;3807;49.030;8.714;2023-02-20T05:21:31;100404.31;;;9.00;77.35
7532;BME280;3807;49.030;8.714;2023-02-20T05:24:15;100401.62;;;9.14;76.84
7532;BME280;3807;49.030;8.714;2023-02-20T05:26:41;100398.44;;;8.93;77.38
7532;BME280;3807;49.030;8.714;2023-02-20T05:29:06;100404.34;;;8.92;77.17
7532;BME280;3807;49.030;8.714;2023-02-20T05:31:34;100407.66;;;9.02;77.04
7532;BME280;3807;49.030;8.714;2023-02-20T05:33:59;100414.50;;;8.92;77.53
7532;BME280;3807;49.030;8.714;2023-02-20T05:36:25;100411.88;;;9.03;76.52
7532;BME280;3807;49.030;8.714;2023-02-20T05:38:50;100412.75;;;8.99;77.01
7532;BME280;3807;49.030;8.714;2023-02-20T05:41:17;100411.06;;;8.99;76.86
7532;BME280;3807;49.030;8.714;2023-02-20T05:43:42;100417.03;;;8.95;77.05
7532;BME280;3807;49.030;8.714;2023-02-20T05:46:08;100412.81;;;8.94;77.43
7532;BME280;3807;49.030;8.714;2023-02-20T05:48:33;100410.25;;;8.97;76.76
7532;BME280;3807;49.030;8.714;2023-02-20T05:50:58;100415.31;;;8.96;77.00
7532;BME280;3807;49.030;8.714;2023-02-20T05:53:27;100411.16;;;8.90;76.80
7532;BME280;3807;49.030;8.714;2023-02-20T05:55:52;100417.88;;;8.96;76.89
7532;BME280;3807;49.030;8.714;2023-02-20T05:58:18;100419.66;;;8.88;76.48
7532;BME280;3807;49.030;8.714;2023-02-20T06:00:43;100417.06;;;8.92;76.96
7532;BME280;3807;49.030;8.714;2023-02-20T06:03:08;100416.97;;;9.04;76.16
7532;BME280;3807;49.030;8.714;2023-02-20T06:05:36;100411.09;;;8.98;76.43
7532;BME280;3807;49.030;8.714;2023-02-20T06:08:02;100412.75;;;9.02;76.31
7532;BME280;3807;49.030;8.714;2023-02-20T06:10:28;100412.69;;;9.08;76.14
7532;BME280;3807;49.030;8.714;2023-02-20T06:12:53;100414.41;;;9.03;76.38
7532;BME280;3807;49.030;8.714;2023-02-20T06:15:18;100414.47;;;8.98;76.46
7532;BME280;3807;49.030;8.714;2023-02-20T06:17:44;100401.75;;;8.98;76.18
7532;BME280;3807;49.030;8.714;2023-02-20T06:20:09;100403.53;;;8.93;76.45
7532;BME280;3807;49.030;8.714;2023-02-20T06:22:35;100410.19;;;9.03;75.96
7532;BME280;3807;49.030;8.714;2023-02-20T06:25:00;100409.44;;;8.94;76.40
7532;BME280;3807;49.030;8.714;2023-02-20T06:27:25;100417.91;;;8.91;76.65
7532;BME280;3807;49.030;8.714;2023-02-20T06:29:51;100409.38;;;9.00;76.18
7532;BME280;3807;49.030;8.714;2023-02-20T06:32:16;100414.50;;;8.95;76.36
7532;BME280;3807;49.030;8.714;2023-02-20T06:34:45;100409.34;;;9.03;75.78
7532;BME280;3807;49.030;8.714;2023-02-20T06:37:11;100414.50;;;8.92;76.01
7532;BME280;3807;49.030;8.714;2023-02-20T06:39:36;100414.62;;;8.80;76.59
7532;BME280;3807;49.030;8.714;2023-02-20T06:42:04;100415.31;;;8.96;76.26
7532;BME280;3807;49.030;8.714;2023-02-20T06:44:30;100415.38;;;8.93;76.10
7532;BME280;3807;49.030;8.714;2023-02-20T06:46:57;100414.62;;;8.83;76.61
7532;BME280;3807;49.030;8.714;2023-02-20T06:49:22;100416.19;;;8.95;76.08
7532;BME280;3807;49.030;8.714;2023-02-20T06:51:52;100417.78;;;9.05;75.61
7532;BME280;3807;49.030;8.714;2023-02-20T06:54:18;100408.66;;;8.87;75.97
7532;BME280;3807;49.030;8.714;2023-02-20T06:56:46;100423.81;;;8.96;75.84
7532;BME280;3807;49.030;8.714;2023-02-20T06:59:12;100416.22;;;8.93;75.97
7532;BME280;3807;49.030;8.714;2023-02-20T07:01:40;100425.56;;;8.93;76.03
7532;BME280;3807;49.030;8.714;2023-02-20T07:04:08;100423.03;;;8.90;76.16
7532;BME280;3807;49.030;8.714;2023-02-20T07:06:38;100421.38;;;8.84;76.15
7532;BME280;3807;49.030;8.714;2023-02-20T07:09:03;100429.03;;;8.82;76.25
7532;BME280;3807;49.030;8.714;2023-02-20T07:11:29;100425.56;;;8.88;76.01
7532;BME280;3807;49.030;8.714;2023-02-20T07:13:54;100430.63;;;8.91;75.75
7532;BME280;3807;49.030;8.714;2023-02-20T07:16:21;100431.53;;;8.84;76.16
7532;BME280;3807;49.030;8.714;2023-02-20T07:18:47;100421.31;;;8.90;75.24
7532;BME280;3807;49.030;8.714;2023-02-20T07:21:12;100431.47;;;8.92;75.61
7532;BME280;3807;49.030;8.714;2023-02-20T07:23:37;100432.41;;;8.80;75.88
7532;BME280;3807;49.030;8.714;2023-02-20T07:26:03;100429.84;;;8.83;75.91
7532;BME280;3807;49.030;8.714;2023-02-20T07:28:28;100423.94;;;8.82;75.74
7532;BME280;3807;49.030;8.714;2023-02-20T07:30:53;100429.81;;;8.89;75.51
7532;BME280;3807;49.030;8.714;2023-02-20T07:33:19;100426.34;;;8.98;75.14
7532;BME280;3807;49.030;8.714;2023-02-20T07:35:45;100419.78;;;8.72;76.16
7532;BME280;3807;49.030;8.714;2023-02-20T07:38:11;100434.06;;;8.87;75.58
7532;BME280;3807;49.030;8.714;2023-02-20T07:40:36;100434.13;;;8.78;75.47
7532;BME280;3807;49.030;8.714;2023-02-20T07:43:02;100437.47;;;8.81;75.51
7532;BME280;3807;49.030;8.714;2023-02-20T07:45:27;100439.16;;;8.86;75.40
7532;BME280;3807;49.030;8.714;2023-02-20T07:47:53;100437.25;;;9.07;74.62
7532;BME280;3807;49.030;8.714;2023-02-20T07:50:18;100438.94;;;9.10;74.48
7532;BME280;3807;49.030;8.714;2023-02-20T07:52:44;100439.66;;;9.21;73.63
7532;BME280;3807;49.030;8.714;2023-02-20T07:55:13;100443.13;;;9.13;74.36
7532;BME280;3807;49.030;8.714;2023-02-20T07:57:39;100448.09;;;9.23;73.73
7532;BME280;3807;49.030;8.714;2023-02-20T08:00:05;100446.47;;;9.18;73.84
7532;BME280;3807;49.030;8.714;2023-02-20T08:02:31;100440.84;;;8.87;74.94
7532;BME280;3807;49.030;8.714;2023-02-20T08:04:56;100449.91;;;9.12;73.90
7532;BME280;3807;49.030;8.714;2023-02-20T08:07:22;100451.59;;;9.13;73.88
7532;BME280;3807;49.030;8.714;2023-02-20T08:09:47;100447.31;;;9.17;73.95
7532;BME280;3807;49.030;8.714;2023-02-20T08:12:13;100445.03;;;8.91;74.76
7532;BME280;3807;49.030;8.714;2023-02-20T08:14:38;100446.63;;;8.99;74.59
7532;BME280;3807;49.030;8.714;2023-02-20T08:17:04;100453.38;;;9.06;74.43
7532;BME280;3807;49.030;8.714;2023-02-20T08:19:29;100446.00;;;8.76;75.35
7532;BME280;3807;49.030;8.714;2023-02-20T08:21:54;100438.38;;;8.74;75.51
7532;BME280;3807;49.030;8.714;2023-02-20T08:24:20;100431.56;;;8.81;75.19
7532;BME280;3807;49.030;8.714;2023-02-20T08:26:46;100427.16;;;9.00;74.63
7532;BME280;3807;49.030;8.714;2023-02-20T08:29:13;100428.22;;;8.74;75.68
7532;BME280;3807;49.030;8.714;2023-02-20T08:31:38;100426.59;;;8.67;76.13
7532;BME280;3807;49.030;8.714;2023-02-20T08:34:03;100432.41;;;8.80;75.38
7532;BME280;3807;49.030;8.714;2023-02-20T08:36:29;100420.69;;;8.68;75.94
7532;BME280;3807;49.030;8.714;2023-02-20T08:38:54;100421.53;;;8.61;76.40
7532;BME280;3807;49.030;8.714;2023-02-20T08:41:21;100419.00;;;8.61;76.31
7532;BME280;3807;49.030;8.714;2023-02-20T08:43:46;100423.22;;;8.67;76.17
7532;BME280;3807;49.030;8.714;2023-02-20T08:46:12;100415.66;;;8.59;76.51
7532;BME280;3807;49.030;8.714;2023-02-20T08:48:37;100421.53;;;8.64;76.45
7532;BME280;3807;49.030;8.714;2023-02-20T08:51:03;100414.81;;;8.57;76.41
7532;BME280;3807;49.030;8.714;2023-02-20T08:53:29;100415.59;;;8.68;76.22
7532;BME280;3807;49.030;8.714;2023-02-20T08:55:55;100424.06;;;8.69;76.18
7532;BME280;3807;49.030;8.714;2023-02-20T08:58:21;100418.19;;;8.62;76.60
7532;BME280;3807;49.030;8.714;2023-02-20T09:00:47;100419.78;;;8.75;76.07
7532;BME280;3807;49.030;8.714;2023-02-20T09:03:12;100417.28;;;8.65;76.34
7532;BME280;3807;49.030;8.714;2023-02-20T09:05:38;100406.31;;;8.63;76.54
7532;BME280;3807;49.030;8.714;2023-02-20T09:08:03;100407.09;;;8.68;76.33
7532;BME280;3807;49.030;8.714;2023-02-20T09:10:29;100417.19;;;8.80;76.02
7532;BME280;3807;49.030;8.714;2023-02-20T09:12:55;100416.31;;;8.81;76.05
7532;BME280;3807;49.030;8.714;2023-02-20T09:15:20;100408.72;;;8.78;75.71
7532;BME280;3807;49.030;8.714;2023-02-20T09:17:51;100414.53;;;8.91;75.71
7532;BME280;3807;49.030;8.714;2023-02-20T09:20:17;100407.78;;;8.88;75.71
7532;BME280;3807;49.030;8.714;2023-02-20T09:22:45;100401.84;;;8.91;75.52
7532;BME280;3807;49.030;8.714;2023-02-20T09:25:11;100398.41;;;8.96;75.52
7532;BME280;3807;49.030;8.714;2023-02-20T09:27:37;100387.47;;;8.90;75.87
7532;BME280;3807;49.030;8.714;2023-02-20T09:30:03;100395.91;;;8.92;75.88
7532;BME280;3807;49.030;8.714;2023-02-20T09:32:29;100392.47;;;8.97;75.48
7532;BME280;3807;49.030;8.714;2023-02-20T09:34:54;100388.19;;;9.01;75.18
7532;BME280;3807;49.030;8.714;2023-02-20T09:37:22;100397.59;;;8.91;75.83
7532;BME280;3807;49.030;8.714;2023-02-20T09:39:47;100395.78;;;9.02;75.32
7532;BME280;3807;49.030;8.714;2023-02-20T09:45:12;100390.78;;;8.95;75.59
7532;BME280;3807;49.030;8.714;2023-02-20T09:48:07;100389.87;;;9.02;75.17
7532;BME280;3807;49.030;8.714;2023-02-20T09:50:43;100374.62;;;9.03;75.14
7532;BME280;3807;49.030;8.714;2023-02-20T09:55:57;100366.09;;;9.11;75.13
7532;BME280;3807;49.030;8.714;2023-02-20T10:01:10;100359.19;;;9.20;74.66
7532;BME280;3807;49.030;8.714;2023-02-20T10:03:52;100364.25;;;9.20;74.66
7532;BME280;3807;49.030;8.714;2023-02-20T10:06:21;100362.66;;;9.15;75.02
7532;BME280;3807;49.030;8.714;2023-02-20T10:08:48;100367.34;;;9.47;73.47
7532;BME280;3807;49.030;8.714;2023-02-20T10:16:51;100349.50;;;9.53;73.10
7532;BME280;3807;49.030;8.714;2023-02-20T10:19:39;100337.56;;;9.57;73.08
7532;BME280;3807;49.030;8.714;2023-02-20T10:22:17;100349.41;;;9.59;72.83
7532;BME280;3807;49.030;8.714;2023-02-20T10:27:30;100347.41;;;9.79;72.29
7532;BME280;3807;49.030;8.714;2023-02-20T10:30:01;100351.44;;;9.97;71.45
7532;BME280;3807;49.030;8.714;2023-02-20T10:32:35;100355.47;;;10.11;71.53
7532;BME280;3807;49.030;8.714;2023-02-20T10:35:08;100346.75;;;10.27;70.57
7532;BME280;3807;49.030;8.714;2023-02-20T10:37:44;100345.31;;;10.09;71.26
7532;BME280;3807;49.030;8.714;2023-02-20T10:40:21;100337.09;;;10.47;70.21
7532;BME280;3807;49.030;8.714;2023-02-20T10:42:58;100344.84;;;10.43;70.66
7532;BME280;3807;49.030;8.714;2023-02-20T10:45:43;100343.50;;;10.70;69.35
7532;BME280;3807;49.030;8.714;2023-02-20T10:48:10;100342.06;;;10.57;70.23
7532;BME280;3807;49.030;8.714;2023-02-20T10:53:49;100342.31;;;10.89;68.23
7532;BME280;3807;49.030;8.714;2023-02-20T10:56:29;100337.97;;;10.94;68.81
7532;BME280;3807;49.030;8.714;2023-02-20T10:59:06;100337.41;;;10.79;69.18
7532;BME280;3807;49.030;8.714;2023-02-20T11:01:34;100339.78;;;10.89;69.09
7532;BME280;3807;49.030;8.714;2023-02-20T11:04:21;100334.50;;;10.99;68.77
7532;BME280;3807;49.030;8.714;2023-02-20T11:06:54;100335.72;;;11.24;67.92
7532;BME280;3807;49.030;8.714;2023-02-20T11:09:20;100330.66;;;11.21;68.37
7532;BME280;3807;49.030;8.714;2023-02-20T11:11:47;100326.06;;;11.38;67.63
7532;BME280;3807;49.030;8.714;2023-02-20T11:14:19;100319.47;;;11.28;68.97
7532;BME280;3807;49.030;8.714;2023-02-20T11:16:58;100322.13;;;11.22;68.86
7532;BME280;3807;49.030;8.714;2023-02-20T11:19:30;100316.03;;;11.29;69.15
7532;BME280;3807;49.030;8.714;2023-02-20T11:21:58;100323.66;;;11.71;66.78
7532;BME280;3807;49.030;8.714;2023-02-20T11:24:29;100315.72;;;11.85;65.99
7532;BME280;3807;49.030;8.714;2023-02-20T11:27:07;100316.81;;;11.73;67.77
7532;BME280;3807;49.030;8.714;2023-02-20T11:30:02;100299.22;;;11.61;68.29
7532;BME280;3807;49.030;8.714;2023-02-20T11:32:38;100299.66;;;11.80;67.43
7532;BME280;3807;49.030;8.714;2023-02-20T11:40:39;100279.41;;;12.09;67.12
7532;BME280;3807;49.030;8.714;2023-02-20T11:45:39;100273.69;;;12.35;65.53
7532;BME280;3807;49.030;8.714;2023-02-20T11:48:09;100266.72;;;12.40;65.81
7532;BME280;3807;49.030;8.714;2023-02-20T11:50:43;100275.00;;;12.50;64.16
7532;BME280;3807;49.030;8.714;2023-02-20T11:53:29;100257.03;;;12.53;65.06
7532;BME280;3807;49.030;8.714;2023-02-20T11:56:14;100258.75;;;12.53;66.46
7532;BME280;3807;49.030;8.714;2023-02-20T11:58:40;100255.53;;;12.45;67.36
7532;BME280;3807;49.030;8.714;2023-02-20T12:01:06;100241.03;;;12.78;64.73
7532;BME280;3807;49.030;8.714;2023-02-20T12:03:34;100239.28;;;12.80;65.86
7532;BME280;3807;49.030;8.714;2023-02-20T12:08:58;100224.41;;;12.93;64.90
7532;BME280;3807;49.030;8.714;2023-02-20T12:11:25;100221.84;;;12.93;66.03
7532;BME280;3807;49.030;8.714;2023-02-20T12:13:55;100214.38;;;13.16;64.44
7532;BME280;3807;49.030;8.714;2023-02-20T12:19:13;100222.72;;;13.51;63.57
7532;BME280;3807;49.030;8.714;2023-02-20T12:36:42;100192.09;;;14.01;63.11
7532;BME280;3807;49.030;8.714;2023-02-20T12:42:17;100183.41;;;14.05;62.03
7532;BME280;3807;49.030;8.714;2023-02-20T12:44:56;100189.78;;;14.18;62.89
7532;BME280;3807;49.030;8.714;2023-02-20T12:47:30;100189.37;;;14.30;64.69
7532;BME280;3807;49.030;8.714;2023-02-20T12:55:28;100178.19;;;14.08;61.79
7532;BME280;3807;49.030;8.714;2023-02-20T13:00:39;100170.22;;;14.41;61.40
7532;BME280;3807;49.030;8.714;2023-02-20T13:05:52;100161.72;;;14.64;62.08
7532;BME280;3807;49.030;8.714;2023-02-20T13:08:24;100142.50;;;14.52;63.38
7532;BME280;3807;49.030;8.714;2023-02-20T13:10:55;100140.72;;;14.29;60.17
7532;BME280;3807;49.030;8.714;2023-02-20T13:13:23;100134.44;;;14.38;63.63
7532;BME280;3807;49.030;8.714;2023-02-20T13:16:42;100132.78;;;14.60;61.45
7532;BME280;3807;49.030;8.714;2023-02-20T13:18:53;100126.81;;;14.61;61.86
7532;BME280;3807;49.030;8.714;2023-02-20T13:21:23;100128.44;;;14.39;61.49
7532;BME280;3807;49.030;8.714;2023-02-20T13:23:50;100121.94;;;14.53;59.03
7532;BME280;3807;49.030;8.714;2023-02-20T13:29:14;100120.47;;;14.46;61.97
7532;BME280;3807;49.030;8.714;2023-02-20T13:31:45;100113.16;;;14.36;61.97
7532;BME280;3807;49.030;8.714;2023-02-20T13:36:47;100107.78;;;14.67;61.41
7532;BME280;3807;49.030;8.714;2023-02-20T13:55:21;100075.53;;;14.83;57.64
7532;BME280;3807;49.030;8.714;2023-02-20T13:57:48;100077.69;;;14.94;60.20
7532;BME280;3807;49.030;8.714;2023-02-20T14:03:28;100076.84;;;14.71;59.86
7532;BME280;3807;49.030;8.714;2023-02-20T14:08:27;100058.75;;;14.74;60.19
7532;BME280;3807;49.030;8.714;2023-02-20T14:10:52;100056.78;;;14.59;59.05
7532;BME280;3807;49.030;8.714;2023-02-20T14:13:20;100054.75;;;14.67;60.97
7532;BME280;3807;49.030;8.714;2023-02-20T14:15:51;100036.66;;;14.72;59.06
7532;BME280;3807;49.030;8.714;2023-02-20T14:18:28;100039.56;;;14.63;60.06
7532;BME280;3807;49.030;8.714;2023-02-20T14:21:16;100045.06;;;14.75;60.50
7532;BME280;3807;49.030;8.714;2023-02-20T14:23:43;100044.69;;;14.85;60.74
7532;BME280;3807;49.030;8.714;2023-02-20T14:26:31;100036.63;;;14.94;58.75
7532;BME280;3807;49.030;8.714;2023-02-20T14:28:58;100033.56;;;14.40;59.43
7532;BME280;3807;49.030;8.714;2023-02-20T14:31:34;100035.03;;;14.69;60.68
7532;BME280;3807;49.030;8.714;2023-02-20T14:34:08;100036.59;;;14.73;58.40
7532;BME280;3807;49.030;8.714;2023-02-20T14:36:55;100027.88;;;14.77;60.32
7532;BME280;3807;49.030;8.714;2023-02-20T14:39:41;100026.94;;;14.58;57.72
7532;BME280;3807;49.030;8.714;2023-02-20T14:42:14;100031.69;;;14.89;59.36
7532;BME280;3807;49.030;8.714;2023-02-20T14:44:40;100028.31;;;14.89;59.39
7532;BME280;3807;49.030;8.714;2023-02-20T14:47:12;100028.72;;;15.00;60.16
7532;BME280;3807;49.030;8.714;2023-02-20T14:49:39;100019.87;;;14.85;59.08
7532;BME280;3807;49.030;8.714;2023-02-20T14:54:37;100011.13;;;14.91;61.02
7532;BME280;3807;49.030;8.714;2023-02-20T14:57:04;100019.13;;;14.83;60.50
7532;BME280;3807;49.030;8.714;2023-02-20T14:59:32;100017.69;;;14.76;59.87
7532;BME280;3807;49.030;8.714;2023-02-20T15:04:35;100020.00;;;14.60;61.01
7532;BME280;3807;49.030;8.714;2023-02-20T15:07:03;100005.88;;;14.50;59.46
7532;BME280;3807;49.030;8.714;2023-02-20T15:09:38;100007.63;;;14.71;59.97
7532;BME280;3807;49.030;8.714;2023-02-20T15:12:04;100007.78;;;14.89;58.75
7532;BME280;3807;49.030;8.714;2023-02-20T15:14:41;100010.41;;;14.87;59.03
7532;BME280;3807;49.030;8.714;2023-02-20T15:17:18;100000.56;;;14.76;59.66
7532;BME280;3807;49.030;8.714;2023-02-20T15:19:45;100006.72;;;14.72;57.37
7532;BME280;3807;49.030;8.714;2023-02-20T15:22:30;99994.50;;;14.57;58.20
7532;BME280;3807;49.030;8.714;2023-02-20T15:25:13;100010.13;;;15.15;58.25
7532;BME280;3807;49.030;8.714;2023-02-20T15:27:39;99997.34;;;14.93;58.65